sensor_id;sensor_type;location;lat;lon;timestamp;P1;durP1;ratioP1;P2;durP2;ratioP2
26219;SDS011;13955;55.574;37.474;2022-08-19T00:00:39;20.23;;;9.43;;
26219;SDS011;13955;55.574;37.474;2022-08-19T00:03:07;15.70;;;8.35;;
26219;SDS011;13955;55.574;37.474;2022-08-19T00:05:36;18.27;;;8.05;;
26219;SDS011;13955;55.574;37.474;2022-08-19T00:08:04;11.60;;;7.87;;
26219;SDS011;13955;55.574;37.474;2022-08-19T00:10:33;16.30;;;7.42;;
26219;SDS011;13955;55.574;37.474;2022-08-19T00:13:02;12.18;;;7.62;;
26219;SDS011;13955;55.574;37.474;2022-08-19T00:15:31;14.53;;;7.85;;
26219;SDS011;13955;55.574;37.474;2022-08-19T00:18:00;13.00;;;6.42;;
26219;SDS011;13955;55.574;37.474;2022-08-19T00:20:28;17.50;;;6.17;;
26219;SDS011;13955;55.574;37.474;2022-08-19T00:22:57;12.80;;;5.70;;
26219;SDS011;13955;55.574;37.474;2022-08-19T00:25:26;10.25;;;5.80;;
26219;SDS011;13955;55.574;37.474;2022-08-19T00:27:54;11.20;;;5.30;;
26219;SDS011;13955;55.574;37.474;2022-08-19T00:30:23;11.75;;;6.12;;
26219;SDS011;13955;55.574;37.474;2022-08-19T00:32:51;11.65;;;5.50;;
26219;SDS011;13955;55.574;37.474;2022-08-19T00:35:22;9.13;;;5.80;;
26219;SDS011;13955;55.574;37.474;2022-08-19T00:37:51;31.90;;;21.02;;
26219;SDS011;13955;55.574;37.474;2022-08-19T00:40:19;57.58;;;34.43;;
26219;SDS011;13955;55.574;37.474;2022-08-19T00:42:48;11.85;;;5.83;;
26219;SDS011;13955;55.574;37.474;2022-08-19T00:45:18;9.55;;;5.75;;
26219;SDS011;13955;55.574;37.474;2022-08-19T00:47:47;14.00;;;6.85;;
26219;SDS011;13955;55.574;37.474;2022-08-19T00:50:16;11.48;;;6.75;;
26219;SDS011;13955;55.574;37.474;2022-08-19T00:52:46;12.82;;;7.97;;
26219;SDS011;13955;55.574;37.474;2022-08-19T00:55:17;13.03;;;6.25;;
26219;SDS011;13955;55.574;37.474;2022-08-19T00:57:48;11.28;;;5.05;;
26219;SDS011;13955;55.574;37.474;2022-08-19T01:00:17;13.57;;;5.90;;
26219;SDS011;13955;55.574;37.474;2022-08-19T01:02:46;10.10;;;5.17;;
26219;SDS011;13955;55.574;37.474;2022-08-19T01:05:16;13.50;;;5.72;;
26219;SDS011;13955;55.574;37.474;2022-08-19T01:07:46;10.20;;;5.67;;
26219;SDS011;13955;55.574;37.474;2022-08-19T01:10:16;13.50;;;6.67;;
26219;SDS011;13955;55.574;37.474;2022-08-19T01:12:46;11.80;;;5.83;;
26219;SDS011;13955;55.574;37.474;2022-08-19T01:15:16;9.43;;;5.90;;
26219;SDS011;13955;55.574;37.474;2022-08-19T01:17:45;16.32;;;7.00;;
26219;SDS011;13955;55.574;37.474;2022-08-19T01:20:16;14.10;;;6.05;;
26219;SDS011;13955;55.574;37.474;2022-08-19T01:22:48;15.37;;;6.23;;
26219;SDS011;13955;55.574;37.474;2022-08-19T01:25:15;17.00;;;5.17;;
26219;SDS011;13955;55.574;37.474;2022-08-19T01:27:46;13.53;;;5.60;;
26219;SDS011;13955;55.574;37.474;2022-08-19T01:30:16;8.53;;;5.25;;
26219;SDS011;13955;55.574;37.474;2022-08-19T01:32:45;9.63;;;5.97;;
26219;SDS011;13955;55.574;37.474;2022-08-19T01:35:13;15.50;;;5.87;;
26219;SDS011;13955;55.574;37.474;2022-08-19T01:37:54;10.40;;;5.80;;
26219;SDS011;13955;55.574;37.474;2022-08-19T01:40:23;10.10;;;5.58;;
26219;SDS011;13955;55.574;37.474;2022-08-19T01:42:53;11.33;;;5.50;;
26219;SDS011;13955;55.574;37.474;2022-08-19T01:45:23;7.47;;;4.92;;
26219;SDS011;13955;55.574;37.474;2022-08-19T01:47:52;9.10;;;4.60;;
26219;SDS011;13955;55.574;37.474;2022-08-19T01:50:21;7.20;;;4.67;;
26219;SDS011;13955;55.574;37.474;2022-08-19T01:52:49;8.85;;;5.08;;
26219;SDS011;13955;55.574;37.474;2022-08-19T01:55:19;5.17;;;4.30;;
26219;SDS011;13955;55.574;37.474;2022-08-19T01:57:49;5.67;;;4.20;;
26219;SDS011;13955;55.574;37.474;2022-08-19T02:00:19;9.93;;;4.20;;
26219;SDS011;13955;55.574;37.474;2022-08-19T02:02:48;10.72;;;4.95;;
26219;SDS011;13955;55.574;37.474;2022-08-19T02:05:17;8.30;;;4.42;;
26219;SDS011;13955;55.574;37.474;2022-08-19T02:07:45;10.85;;;4.42;;
26219;SDS011;13955;55.574;37.474;2022-08-19T02:10:16;7.25;;;4.37;;
26219;SDS011;13955;55.574;37.474;2022-08-19T02:12:44;10.98;;;5.05;;
26219;SDS011;13955;55.574;37.474;2022-08-19T02:15:13;11.00;;;4.42;;
26219;SDS011;13955;55.574;37.474;2022-08-19T02:17:42;12.78;;;4.65;;
26219;SDS011;13955;55.574;37.474;2022-08-19T02:20:11;8.38;;;4.20;;
26219;SDS011;13955;55.574;37.474;2022-08-19T02:22:41;10.70;;;4.22;;
26219;SDS011;13955;55.574;37.474;2022-08-19T02:25:15;9.33;;;4.08;;
26219;SDS011;13955;55.574;37.474;2022-08-19T02:27:40;10.47;;;3.90;;
26219;SDS011;13955;55.574;37.474;2022-08-19T02:30:13;9.25;;;5.12;;
26219;SDS011;13955;55.574;37.474;2022-08-19T02:32:39;6.47;;;3.67;;
26219;SDS011;13955;55.574;37.474;2022-08-19T02:35:07;8.05;;;4.58;;
26219;SDS011;13955;55.574;37.474;2022-08-19T02:37:36;5.12;;;3.50;;
26219;SDS011;13955;55.574;37.474;2022-08-19T02:40:22;9.95;;;4.12;;
26219;SDS011;13955;55.574;37.474;2022-08-19T02:42:51;9.75;;;3.80;;
26219;SDS011;13955;55.574;37.474;2022-08-19T02:45:20;6.45;;;3.95;;
26219;SDS011;13955;55.574;37.474;2022-08-19T02:47:48;7.03;;;3.70;;
26219;SDS011;13955;55.574;37.474;2022-08-19T02:50:17;11.08;;;3.67;;
26219;SDS011;13955;55.574;37.474;2022-08-19T02:52:46;4.95;;;3.58;;
26219;SDS011;13955;55.574;37.474;2022-08-19T02:55:14;7.78;;;3.37;;
26219;SDS011;13955;55.574;37.474;2022-08-19T02:57:43;9.75;;;3.75;;
26219;SDS011;13955;55.574;37.474;2022-08-19T03:00:12;6.78;;;3.77;;
26219;SDS011;13955;55.574;37.474;2022-08-19T03:02:40;10.75;;;3.50;;
26219;SDS011;13955;55.574;37.474;2022-08-19T03:05:09;5.80;;;3.45;;
26219;SDS011;13955;55.574;37.474;2022-08-19T03:07:38;11.85;;;3.30;;
26219;SDS011;13955;55.574;37.474;2022-08-19T03:10:07;5.85;;;4.50;;
26219;SDS011;13955;55.574;37.474;2022-08-19T03:12:36;9.65;;;4.00;;
26219;SDS011;13955;55.574;37.474;2022-08-19T03:15:05;7.28;;;3.55;;
26219;SDS011;13955;55.574;37.474;2022-08-19T03:17:35;10.23;;;3.87;;
26219;SDS011;13955;55.574;37.474;2022-08-19T03:20:04;7.50;;;3.92;;
26219;SDS011;13955;55.574;37.474;2022-08-19T03:22:41;5.45;;;3.30;;
26219;SDS011;13955;55.574;37.474;2022-08-19T03:25:10;5.55;;;3.22;;
26219;SDS011;13955;55.574;37.474;2022-08-19T03:27:39;9.58;;;3.35;;
26219;SDS011;13955;55.574;37.474;2022-08-19T03:30:08;10.08;;;3.92;;
26219;SDS011;13955;55.574;37.474;2022-08-19T03:32:38;5.80;;;3.47;;
26219;SDS011;13955;55.574;37.474;2022-08-19T03:35:06;7.85;;;3.17;;
26219;SDS011;13955;55.574;37.474;2022-08-19T03:37:35;5.85;;;3.33;;
26219;SDS011;13955;55.574;37.474;2022-08-19T03:40:03;6.55;;;2.98;;
26219;SDS011;13955;55.574;37.474;2022-08-19T03:42:32;13.93;;;3.70;;
26219;SDS011;13955;55.574;37.474;2022-08-19T03:45:01;12.07;;;3.70;;
26219;SDS011;13955;55.574;37.474;2022-08-19T03:47:29;9.90;;;3.60;;
26219;SDS011;13955;55.574;37.474;2022-08-19T03:49:58;9.55;;;4.50;;
26219;SDS011;13955;55.574;37.474;2022-08-19T03:52:27;5.33;;;3.37;;
26219;SDS011;13955;55.574;37.474;2022-08-19T03:54:55;10.82;;;3.83;;
26219;SDS011;13955;55.574;37.474;2022-08-19T03:57:24;12.00;;;3.47;;
26219;SDS011;13955;55.574;37.474;2022-08-19T03:59:53;15.15;;;4.90;;
26219;SDS011;13955;55.574;37.474;2022-08-19T04:02:21;10.70;;;3.80;;
26219;SDS011;13955;55.574;37.474;2022-08-19T04:04:50;13.93;;;4.00;;
26219;SDS011;13955;55.574;37.474;2022-08-19T04:07:20;7.73;;;4.60;;
26219;SDS011;13955;55.574;37.474;2022-08-19T04:09:48;13.13;;;4.20;;
26219;SDS011;13955;55.574;37.474;2022-08-19T04:12:19;8.70;;;3.52;;
26219;SDS011;13955;55.574;37.474;2022-08-19T04:14:47;7.58;;;3.62;;
26219;SDS011;13955;55.574;37.474;2022-08-19T04:17:16;13.78;;;4.47;;
26219;SDS011;13955;55.574;37.474;2022-08-19T04:19:45;10.48;;;4.33;;
26219;SDS011;13955;55.574;37.474;2022-08-19T04:22:13;13.85;;;4.58;;
26219;SDS011;13955;55.574;37.474;2022-08-19T04:24:42;13.22;;;4.08;;
26219;SDS011;13955;55.574;37.474;2022-08-19T04:27:10;11.55;;;4.42;;
26219;SDS011;13955;55.574;37.474;2022-08-19T04:29:39;10.08;;;3.80;;
26219;SDS011;13955;55.574;37.474;2022-08-19T04:32:08;11.12;;;4.20;;
26219;SDS011;13955;55.574;37.474;2022-08-19T04:34:37;10.15;;;4.15;;
26219;SDS011;13955;55.574;37.474;2022-08-19T04:37:06;8.05;;;4.67;;
26219;SDS011;13955;55.574;37.474;2022-08-19T04:39:36;14.03;;;4.40;;
26219;SDS011;13955;55.574;37.474;2022-08-19T04:42:22;11.75;;;4.75;;
26219;SDS011;13955;55.574;37.474;2022-08-19T04:45:07;8.48;;;4.08;;
26219;SDS011;13955;55.574;37.474;2022-08-19T04:47:37;7.50;;;3.72;;
26219;SDS011;13955;55.574;37.474;2022-08-19T04:50:07;11.57;;;4.20;;
26219;SDS011;13955;55.574;37.474;2022-08-19T04:52:36;15.25;;;4.80;;
26219;SDS011;13955;55.574;37.474;2022-08-19T04:55:07;16.20;;;4.83;;
26219;SDS011;13955;55.574;37.474;2022-08-19T04:57:36;10.88;;;4.33;;
26219;SDS011;13955;55.574;37.474;2022-08-19T05:00:07;9.05;;;4.08;;
26219;SDS011;13955;55.574;37.474;2022-08-19T05:02:37;11.03;;;3.80;;
26219;SDS011;13955;55.574;37.474;2022-08-19T05:05:05;6.22;;;3.90;;
26219;SDS011;13955;55.574;37.474;2022-08-19T05:07:34;10.50;;;4.55;;
26219;SDS011;13955;55.574;37.474;2022-08-19T05:10:04;13.03;;;4.20;;
26219;SDS011;13955;55.574;37.474;2022-08-19T05:12:33;9.03;;;4.77;;
26219;SDS011;13955;55.574;37.474;2022-08-19T05:15:03;16.50;;;4.70;;
26219;SDS011;13955;55.574;37.474;2022-08-19T05:17:31;6.30;;;4.15;;
26219;SDS011;13955;55.574;37.474;2022-08-19T05:20:00;15.38;;;4.83;;
26219;SDS011;13955;55.574;37.474;2022-08-19T05:22:47;21.85;;;6.78;;
26219;SDS011;13955;55.574;37.474;2022-08-19T05:25:17;18.17;;;5.75;;
26219;SDS011;13955;55.574;37.474;2022-08-19T05:27:46;13.38;;;5.08;;
26219;SDS011;13955;55.574;37.474;2022-08-19T05:30:15;13.60;;;5.00;;
26219;SDS011;13955;55.574;37.474;2022-08-19T05:32:44;18.15;;;5.70;;
26219;SDS011;13955;55.574;37.474;2022-08-19T05:35:13;11.25;;;4.97;;
26219;SDS011;13955;55.574;37.474;2022-08-19T05:37:41;16.20;;;5.58;;
26219;SDS011;13955;55.574;37.474;2022-08-19T05:40:10;9.38;;;4.40;;
26219;SDS011;13955;55.574;37.474;2022-08-19T05:42:39;16.37;;;5.80;;
26219;SDS011;13955;55.574;37.474;2022-08-19T05:45:08;14.33;;;5.03;;
26219;SDS011;13955;55.574;37.474;2022-08-19T05:47:36;10.48;;;4.30;;
26219;SDS011;13955;55.574;37.474;2022-08-19T05:50:05;9.90;;;4.20;;
26219;SDS011;13955;55.574;37.474;2022-08-19T05:52:34;8.73;;;4.53;;
26219;SDS011;13955;55.574;37.474;2022-08-19T05:55:05;11.45;;;4.75;;
26219;SDS011;13955;55.574;37.474;2022-08-19T05:57:34;12.98;;;6.95;;
26219;SDS011;13955;55.574;37.474;2022-08-19T06:00:04;20.77;;;5.70;;
26219;SDS011;13955;55.574;37.474;2022-08-19T06:02:36;12.23;;;5.75;;
26219;SDS011;13955;55.574;37.474;2022-08-19T06:05:05;14.87;;;4.97;;
26219;SDS011;13955;55.574;37.474;2022-08-19T06:07:37;13.35;;;6.78;;
26219;SDS011;13955;55.574;37.474;2022-08-19T06:10:07;15.43;;;5.50;;
26219;SDS011;13955;55.574;37.474;2022-08-19T06:12:37;9.73;;;5.10;;
26219;SDS011;13955;55.574;37.474;2022-08-19T06:15:11;13.25;;;5.03;;
26219;SDS011;13955;55.574;37.474;2022-08-19T06:17:39;10.88;;;6.60;;
26219;SDS011;13955;55.574;37.474;2022-08-19T06:20:10;12.63;;;5.05;;
26219;SDS011;13955;55.574;37.474;2022-08-19T06:22:40;9.88;;;6.37;;
26219;SDS011;13955;55.574;37.474;2022-08-19T06:25:09;15.53;;;6.65;;
26219;SDS011;13955;55.574;37.474;2022-08-19T06:27:37;18.07;;;5.45;;
26219;SDS011;13955;55.574;37.474;2022-08-19T06:30:06;13.90;;;5.47;;
26219;SDS011;13955;55.574;37.474;2022-08-19T06:32:35;14.87;;;6.40;;
26219;SDS011;13955;55.574;37.474;2022-08-19T06:35:04;11.30;;;5.33;;
26219;SDS011;13955;55.574;37.474;2022-08-19T06:37:33;14.85;;;5.78;;
26219;SDS011;13955;55.574;37.474;2022-08-19T06:40:02;14.28;;;5.85;;
26219;SDS011;13955;55.574;37.474;2022-08-19T06:42:30;17.45;;;6.50;;
26219;SDS011;13955;55.574;37.474;2022-08-19T06:44:59;18.05;;;6.72;;
26219;SDS011;13955;55.574;37.474;2022-08-19T06:47:29;15.68;;;6.83;;
26219;SDS011;13955;55.574;37.474;2022-08-19T06:50:00;12.73;;;6.40;;
26219;SDS011;13955;55.574;37.474;2022-08-19T06:54:58;14.65;;;5.90;;
26219;SDS011;13955;55.574;37.474;2022-08-19T06:57:26;27.62;;;8.68;;
26219;SDS011;13955;55.574;37.474;2022-08-19T06:59:57;15.28;;;7.45;;
26219;SDS011;13955;55.574;37.474;2022-08-19T07:02:28;14.58;;;6.53;;
26219;SDS011;13955;55.574;37.474;2022-08-19T07:04:57;13.58;;;6.22;;
26219;SDS011;13955;55.574;37.474;2022-08-19T07:07:25;19.27;;;6.20;;
26219;SDS011;13955;55.574;37.474;2022-08-19T07:09:54;16.23;;;6.12;;
26219;SDS011;13955;55.574;37.474;2022-08-19T07:12:22;16.07;;;6.78;;
26219;SDS011;13955;55.574;37.474;2022-08-19T07:14:51;14.20;;;5.87;;
26219;SDS011;13955;55.574;37.474;2022-08-19T07:17:20;10.05;;;5.75;;
26219;SDS011;13955;55.574;37.474;2022-08-19T07:19:48;9.30;;;5.60;;
26219;SDS011;13955;55.574;37.474;2022-08-19T07:22:17;7.87;;;5.15;;
26219;SDS011;13955;55.574;37.474;2022-08-19T07:24:47;13.60;;;5.42;;
26219;SDS011;13955;55.574;37.474;2022-08-19T07:27:17;13.78;;;6.03;;
26219;SDS011;13955;55.574;37.474;2022-08-19T07:29:46;10.85;;;4.87;;
26219;SDS011;13955;55.574;37.474;2022-08-19T07:32:14;11.38;;;4.67;;
26219;SDS011;13955;55.574;37.474;2022-08-19T07:34:43;22.32;;;5.47;;
26219;SDS011;13955;55.574;37.474;2022-08-19T07:37:12;16.32;;;5.58;;
26219;SDS011;13955;55.574;37.474;2022-08-19T07:39:41;21.65;;;5.58;;
26219;SDS011;13955;55.574;37.474;2022-08-19T07:42:10;14.23;;;4.83;;
26219;SDS011;13955;55.574;37.474;2022-08-19T07:44:39;11.15;;;4.65;;
26219;SDS011;13955;55.574;37.474;2022-08-19T07:47:08;7.58;;;4.10;;
26219;SDS011;13955;55.574;37.474;2022-08-19T07:49:36;8.98;;;4.70;;
26219;SDS011;13955;55.574;37.474;2022-08-19T07:52:06;11.18;;;4.25;;
26219;SDS011;13955;55.574;37.474;2022-08-19T07:54:36;18.63;;;7.30;;
26219;SDS011;13955;55.574;37.474;2022-08-19T07:57:05;11.70;;;4.42;;
26219;SDS011;13955;55.574;37.474;2022-08-19T07:59:34;12.78;;;4.35;;
26219;SDS011;13955;55.574;37.474;2022-08-19T08:02:03;12.45;;;4.22;;
26219;SDS011;13955;55.574;37.474;2022-08-19T08:04:32;13.98;;;3.95;;
26219;SDS011;13955;55.574;37.474;2022-08-19T08:07:18;10.25;;;3.70;;
26219;SDS011;13955;55.574;37.474;2022-08-19T08:10:06;17.87;;;5.08;;
26219;SDS011;13955;55.574;37.474;2022-08-19T08:12:36;11.95;;;4.20;;
26219;SDS011;13955;55.574;37.474;2022-08-19T08:15:08;16.32;;;4.20;;
26219;SDS011;13955;55.574;37.474;2022-08-19T08:17:36;17.57;;;3.80;;
26219;SDS011;13955;55.574;37.474;2022-08-19T08:20:06;16.85;;;4.00;;
26219;SDS011;13955;55.574;37.474;2022-08-19T08:22:35;16.48;;;3.77;;
26219;SDS011;13955;55.574;37.474;2022-08-19T08:25:21;10.25;;;3.92;;
26219;SDS011;13955;55.574;37.474;2022-08-19T08:27:50;17.73;;;5.47;;
26219;SDS011;13955;55.574;37.474;2022-08-19T08:30:21;9.88;;;3.90;;
26219;SDS011;13955;55.574;37.474;2022-08-19T08:32:50;11.38;;;4.05;;
26219;SDS011;13955;55.574;37.474;2022-08-19T08:35:20;9.50;;;3.90;;
26219;SDS011;13955;55.574;37.474;2022-08-19T08:37:50;12.13;;;4.20;;
26219;SDS011;13955;55.574;37.474;2022-08-19T08:40:22;11.35;;;3.83;;
26219;SDS011;13955;55.574;37.474;2022-08-19T08:43:02;13.43;;;4.22;;
26219;SDS011;13955;55.574;37.474;2022-08-19T08:45:29;13.93;;;3.60;;
26219;SDS011;13955;55.574;37.474;2022-08-19T08:47:59;14.28;;;4.30;;
26219;SDS011;13955;55.574;37.474;2022-08-19T08:50:35;8.58;;;3.83;;
26219;SDS011;13955;55.574;37.474;2022-08-19T08:53:04;16.27;;;5.60;;
26219;SDS011;13955;55.574;37.474;2022-08-19T08:55:34;5.15;;;3.25;;
26219;SDS011;13955;55.574;37.474;2022-08-19T08:58:04;7.40;;;3.22;;
26219;SDS011;13955;55.574;37.474;2022-08-19T09:00:33;11.12;;;3.52;;
26219;SDS011;13955;55.574;37.474;2022-08-19T09:03:03;17.13;;;4.80;;
26219;SDS011;13955;55.574;37.474;2022-08-19T09:05:41;11.28;;;3.77;;
26219;SDS011;13955;55.574;37.474;2022-08-19T09:08:20;10.72;;;3.47;;
26219;SDS011;13955;55.574;37.474;2022-08-19T09:10:52;8.83;;;3.20;;
26219;SDS011;13955;55.574;37.474;2022-08-19T09:16:16;9.90;;;3.35;;
26219;SDS011;13955;55.574;37.474;2022-08-19T09:18:46;10.58;;;2.83;;
26219;SDS011;13955;55.574;37.474;2022-08-19T09:21:20;17.30;;;4.12;;
26219;SDS011;13955;55.574;37.474;2022-08-19T09:23:50;12.68;;;3.55;;
26219;SDS011;13955;55.574;37.474;2022-08-19T09:26:20;9.53;;;4.12;;
26219;SDS011;13955;55.574;37.474;2022-08-19T09:31:19;18.92;;;3.98;;
26219;SDS011;13955;55.574;37.474;2022-08-19T09:33:47;15.48;;;3.30;;
26219;SDS011;13955;55.574;37.474;2022-08-19T09:36:16;23.15;;;3.75;;
26219;SDS011;13955;55.574;37.474;2022-08-19T09:38:45;12.05;;;3.35;;
26219;SDS011;13955;55.574;37.474;2022-08-19T09:41:15;20.32;;;4.12;;
26219;SDS011;13955;55.574;37.474;2022-08-19T09:46:12;13.88;;;3.02;;
26219;SDS011;13955;55.574;37.474;2022-08-19T09:48:41;8.00;;;2.75;;
26219;SDS011;13955;55.574;37.474;2022-08-19T09:51:12;16.27;;;3.65;;
26219;SDS011;13955;55.574;37.474;2022-08-19T09:53:44;25.55;;;4.47;;
26219;SDS011;13955;55.574;37.474;2022-08-19T09:56:13;20.77;;;4.47;;
26219;SDS011;13955;55.574;37.474;2022-08-19T09:58:41;24.32;;;4.33;;
26219;SDS011;13955;55.574;37.474;2022-08-19T10:01:15;16.82;;;3.62;;
26219;SDS011;13955;55.574;37.474;2022-08-19T10:06:08;21.17;;;3.35;;
26219;SDS011;13955;55.574;37.474;2022-08-19T10:08:36;17.10;;;2.90;;
26219;SDS011;13955;55.574;37.474;2022-08-19T10:11:07;12.60;;;3.00;;
26219;SDS011;13955;55.574;37.474;2022-08-19T10:16:06;13.62;;;3.70;;
26219;SDS011;13955;55.574;37.474;2022-08-19T10:18:35;9.55;;;2.70;;
26219;SDS011;13955;55.574;37.474;2022-08-19T10:21:08;10.80;;;3.72;;
26219;SDS011;13955;55.574;37.474;2022-08-19T10:23:37;9.80;;;3.65;;
26219;SDS011;13955;55.574;37.474;2022-08-19T10:26:06;9.55;;;3.25;;
26219;SDS011;13955;55.574;37.474;2022-08-19T10:28:35;7.90;;;2.90;;
26219;SDS011;13955;55.574;37.474;2022-08-19T10:31:12;14.38;;;3.15;;
26219;SDS011;13955;55.574;37.474;2022-08-19T10:33:36;8.50;;;2.72;;
26219;SDS011;13955;55.574;37.474;2022-08-19T10:36:06;4.67;;;2.73;;
26219;SDS011;13955;55.574;37.474;2022-08-19T10:38:35;7.55;;;2.90;;
26219;SDS011;13955;55.574;37.474;2022-08-19T10:41:08;10.73;;;3.20;;
26219;SDS011;13955;55.574;37.474;2022-08-19T10:43:37;10.93;;;2.85;;
26219;SDS011;13955;55.574;37.474;2022-08-19T10:46:06;10.13;;;2.98;;
26219;SDS011;13955;55.574;37.474;2022-08-19T10:48:35;10.32;;;2.62;;
26219;SDS011;13955;55.574;37.474;2022-08-19T10:51:04;10.05;;;3.72;;
26219;SDS011;13955;55.574;37.474;2022-08-19T10:53:51;12.93;;;3.50;;
26219;SDS011;13955;55.574;37.474;2022-08-19T10:56:19;7.12;;;3.33;;
26219;SDS011;13955;55.574;37.474;2022-08-19T10:59:08;13.93;;;3.42;;
26219;SDS011;13955;55.574;37.474;2022-08-19T11:01:37;5.78;;;3.05;;
26219;SDS011;13955;55.574;37.474;2022-08-19T11:04:06;4.78;;;2.70;;
26219;SDS011;13955;55.574;37.474;2022-08-19T11:06:40;6.30;;;2.98;;
26219;SDS011;13955;55.574;37.474;2022-08-19T11:09:09;3.95;;;2.92;;
26219;SDS011;13955;55.574;37.474;2022-08-19T11:14:15;13.35;;;3.60;;
26219;SDS011;13955;55.574;37.474;2022-08-19T11:16:39;11.55;;;3.20;;
26219;SDS011;13955;55.574;37.474;2022-08-19T11:19:09;8.88;;;2.85;;
26219;SDS011;13955;55.574;37.474;2022-08-19T11:21:38;11.83;;;3.08;;
26219;SDS011;13955;55.574;37.474;2022-08-19T11:24:11;8.95;;;2.70;;
26219;SDS011;13955;55.574;37.474;2022-08-19T11:26:40;8.28;;;3.17;;
26219;SDS011;13955;55.574;37.474;2022-08-19T11:29:10;8.00;;;3.20;;
26219;SDS011;13955;55.574;37.474;2022-08-19T11:31:42;13.93;;;3.40;;
26219;SDS011;13955;55.574;37.474;2022-08-19T11:34:12;8.40;;;2.80;;
26219;SDS011;13955;55.574;37.474;2022-08-19T11:39:10;8.80;;;3.45;;
26219;SDS011;13955;55.574;37.474;2022-08-19T11:41:39;8.63;;;3.40;;
26219;SDS011;13955;55.574;37.474;2022-08-19T11:44:08;10.45;;;3.22;;
26219;SDS011;13955;55.574;37.474;2022-08-19T11:46:37;7.97;;;3.22;;
26219;SDS011;13955;55.574;37.474;2022-08-19T11:49:06;10.35;;;3.40;;
26219;SDS011;13955;55.574;37.474;2022-08-19T11:51:36;6.33;;;3.30;;
26219;SDS011;13955;55.574;37.474;2022-08-19T11:54:05;11.65;;;3.27;;
26219;SDS011;13955;55.574;37.474;2022-08-19T11:56:34;4.95;;;2.77;;
26219;SDS011;13955;55.574;37.474;2022-08-19T11:59:02;6.05;;;2.98;;
26219;SDS011;13955;55.574;37.474;2022-08-19T12:01:31;9.68;;;2.87;;
26219;SDS011;13955;55.574;37.474;2022-08-19T12:04:00;7.70;;;3.17;;
26219;SDS011;13955;55.574;37.474;2022-08-19T12:06:30;6.25;;;3.22;;
26219;SDS011;13955;55.574;37.474;2022-08-19T12:09:00;8.98;;;2.87;;
26219;SDS011;13955;55.574;37.474;2022-08-19T12:13:56;16.35;;;3.55;;
26219;SDS011;13955;55.574;37.474;2022-08-19T12:16:26;15.03;;;3.80;;
26219;SDS011;13955;55.574;37.474;2022-08-19T12:18:55;14.55;;;3.47;;
26219;SDS011;13955;55.574;37.474;2022-08-19T12:21:24;9.90;;;3.60;;
26219;SDS011;13955;55.574;37.474;2022-08-19T12:23:55;17.80;;;3.62;;
26219;SDS011;13955;55.574;37.474;2022-08-19T12:26:25;8.33;;;3.40;;
26219;SDS011;13955;55.574;37.474;2022-08-19T12:28:54;11.43;;;3.45;;
26219;SDS011;13955;55.574;37.474;2022-08-19T12:31:23;8.93;;;3.75;;
26219;SDS011;13955;55.574;37.474;2022-08-19T12:33:51;5.53;;;3.22;;
26219;SDS011;13955;55.574;37.474;2022-08-19T12:36:20;10.40;;;3.95;;
26219;SDS011;13955;55.574;37.474;2022-08-19T12:38:49;12.15;;;4.03;;
26219;SDS011;13955;55.574;37.474;2022-08-19T12:41:18;10.43;;;3.58;;
26219;SDS011;13955;55.574;37.474;2022-08-19T12:43:49;14.65;;;3.17;;
26219;SDS011;13955;55.574;37.474;2022-08-19T12:46:18;9.95;;;3.10;;
26219;SDS011;13955;55.574;37.474;2022-08-19T12:48:47;12.10;;;4.12;;
26219;SDS011;13955;55.574;37.474;2022-08-19T12:51:16;11.63;;;3.60;;
26219;SDS011;13955;55.574;37.474;2022-08-19T12:53:47;13.40;;;4.55;;
26219;SDS011;13955;55.574;37.474;2022-08-19T12:58:46;8.78;;;3.47;;
26219;SDS011;13955;55.574;37.474;2022-08-19T13:01:15;10.72;;;4.55;;
26219;SDS011;13955;55.574;37.474;2022-08-19T13:03:46;8.23;;;3.60;;
26219;SDS011;13955;55.574;37.474;2022-08-19T13:06:15;11.45;;;3.83;;
26219;SDS011;13955;55.574;37.474;2022-08-19T13:08:44;7.78;;;3.17;;
26219;SDS011;13955;55.574;37.474;2022-08-19T13:11:14;11.08;;;3.52;;
26219;SDS011;13955;55.574;37.474;2022-08-19T13:13:44;11.48;;;3.72;;
26219;SDS011;13955;55.574;37.474;2022-08-19T13:16:13;15.70;;;4.05;;
26219;SDS011;13955;55.574;37.474;2022-08-19T13:18:42;15.03;;;4.40;;
26219;SDS011;13955;55.574;37.474;2022-08-19T13:21:12;9.73;;;4.15;;
26219;SDS011;13955;55.574;37.474;2022-08-19T13:23:41;9.83;;;4.03;;
26219;SDS011;13955;55.574;37.474;2022-08-19T13:26:10;10.32;;;4.12;;
26219;SDS011;13955;55.574;37.474;2022-08-19T13:28:40;13.48;;;3.80;;
26219;SDS011;13955;55.574;37.474;2022-08-19T13:31:27;8.33;;;4.15;;
26219;SDS011;13955;55.574;37.474;2022-08-19T13:34:14;10.68;;;4.50;;
26219;SDS011;13955;55.574;37.474;2022-08-19T13:36:43;14.28;;;6.45;;
26219;SDS011;13955;55.574;37.474;2022-08-19T13:39:12;16.82;;;8.55;;
26219;SDS011;13955;55.574;37.474;2022-08-19T13:41:43;12.20;;;8.95;;
26219;SDS011;13955;55.574;37.474;2022-08-19T13:44:10;14.73;;;10.72;;
26219;SDS011;13955;55.574;37.474;2022-08-19T13:46:39;16.52;;;10.50;;
26219;SDS011;13955;55.574;37.474;2022-08-19T13:49:08;17.75;;;10.95;;
26219;SDS011;13955;55.574;37.474;2022-08-19T13:51:37;13.90;;;10.78;;
26219;SDS011;13955;55.574;37.474;2022-08-19T13:54:07;18.42;;;9.48;;
26219;SDS011;13955;55.574;37.474;2022-08-19T13:56:40;16.10;;;10.63;;
26219;SDS011;13955;55.574;37.474;2022-08-19T13:59:09;17.32;;;11.10;;
26219;SDS011;13955;55.574;37.474;2022-08-19T14:01:38;15.55;;;10.18;;
26219;SDS011;13955;55.574;37.474;2022-08-19T14:04:07;18.15;;;10.23;;
26219;SDS011;13955;55.574;37.474;2022-08-19T14:06:35;17.48;;;10.32;;
26219;SDS011;13955;55.574;37.474;2022-08-19T14:09:04;23.32;;;10.65;;
26219;SDS011;13955;55.574;37.474;2022-08-19T14:11:33;17.12;;;10.30;;
26219;SDS011;13955;55.574;37.474;2022-08-19T14:14:02;18.40;;;9.50;;
26219;SDS011;13955;55.574;37.474;2022-08-19T14:16:30;10.93;;;8.45;;
26219;SDS011;13955;55.574;37.474;2022-08-19T14:18:59;13.13;;;8.25;;
26219;SDS011;13955;55.574;37.474;2022-08-19T14:21:27;15.60;;;8.10;;
26219;SDS011;13955;55.574;37.474;2022-08-19T14:23:56;22.75;;;8.73;;
26219;SDS011;13955;55.574;37.474;2022-08-19T14:26:25;12.65;;;7.33;;
26219;SDS011;13955;55.574;37.474;2022-08-19T14:28:54;15.03;;;8.23;;
26219;SDS011;13955;55.574;37.474;2022-08-19T14:31:24;12.90;;;7.35;;
26219;SDS011;13955;55.574;37.474;2022-08-19T14:33:53;15.63;;;7.85;;
26219;SDS011;13955;55.574;37.474;2022-08-19T14:36:22;11.38;;;7.12;;
26219;SDS011;13955;55.574;37.474;2022-08-19T14:38:50;20.35;;;6.47;;
26219;SDS011;13955;55.574;37.474;2022-08-19T14:41:20;11.18;;;6.42;;
26219;SDS011;13955;55.574;37.474;2022-08-19T14:43:50;12.37;;;6.77;;
26219;SDS011;13955;55.574;37.474;2022-08-19T14:46:25;15.15;;;7.05;;
26219;SDS011;13955;55.574;37.474;2022-08-19T14:48:49;15.65;;;7.35;;
26219;SDS011;13955;55.574;37.474;2022-08-19T14:51:18;14.13;;;7.62;;
26219;SDS011;13955;55.574;37.474;2022-08-19T14:53:46;19.17;;;9.03;;
26219;SDS011;13955;55.574;37.474;2022-08-19T14:56:18;16.97;;;8.48;;
26219;SDS011;13955;55.574;37.474;2022-08-19T14:58:46;16.02;;;8.43;;
26219;SDS011;13955;55.574;37.474;2022-08-19T15:01:17;14.20;;;8.60;;
26219;SDS011;13955;55.574;37.474;2022-08-19T15:03:47;17.50;;;8.48;;
26219;SDS011;13955;55.574;37.474;2022-08-19T15:06:16;16.45;;;7.97;;